Time;durP1;ratioP1;P1;durP2;ratioP2;P2;SDS_P1;SDS_P2;PMS_P1;PMS_P2;Temp;Humidity;BMP_temperature;BMP_pressure;BME280_temperature;BME280_humidity;BME280_pressure;Samples;Min_cycle;Max_cycle;Signal;HPM_P1;HPM_P2
2021/12/14 00:01:20;;;;;;;23.95;15.38;;;;;;;;;;5148346;27;20058;-65
2021/12/14 00:03:49;;;;;;;25.08;15.65;;;;;;;;;;5149011;27;20050;-64
2021/12/14 00:06:16;;;;;;;23.50;13.85;;;;;;;;;;5128986;27;20039;-64
2021/12/14 00:09:23;;;;;;;20.38;13.50;;;;;;;;;;5148475;27;20043;-65
2021/12/14 00:16:44;;;;;;;23.00;14.83;;;;;;;;;;5147867;27;20495;-64
2021/12/14 00:19:11;;;;;;;24.55;14.85;;;;;;;;;;5148482;27;20107;-65
2021/12/14 00:21:37;;;;;;;22.25;13.85;;;;;;;;;;5147876;27;20072;-64
2021/12/14 00:24:11;;;;;;;26.52;15.13;;;;;;;;;;5148160;27;20457;-64
2021/12/14 00:26:43;;;;;;;18.48;13.95;;;;;;;;;;5147849;27;20126;-64
2021/12/14 00:29:13;;;;;;;23.00;14.55;;;;;;;;;;5147878;27;20044;-64
2021/12/14 00:31:39;;;;;;;19.02;12.90;;;;;;;;;;5147930;27;20053;-65
2021/12/14 00:34:07;;;;;;;17.88;13.82;;;;;;;;;;5147076;27;20062;-64
2021/12/14 00:36:35;;;;;;;23.20;14.77;;;;;;;;;;5147145;27;20051;-63
2021/12/14 00:39:03;;;;;;;25.50;14.80;;;;;;;;;;5148174;27;20623;-64
2021/12/14 00:41:32;;;;;;;19.95;14.20;;;;;;;;;;5147635;27;20134;-63
2021/12/14 00:43:58;;;;;;;23.40;14.13;;;;;;;;;;5147443;27;20054;-64
2021/12/14 00:46:25;;;;;;;19.95;13.27;;;;;;;;;;5147840;27;20478;-63
2021/12/14 00:48:51;;;;;;;20.00;14.30;;;;;;;;;;5147960;27;20047;-64
2021/12/14 00:51:21;;;;;;;21.80;14.15;;;;;;;;;;5147210;27;20063;-64
2021/12/14 00:53:48;;;;;;;19.88;14.02;;;;;;;;;;5147101;27;20047;-64
2021/12/14 00:56:14;;;;;;;27.15;14.43;;;;;;;;;;5147678;27;20043;-64
2021/12/14 00:58:41;;;;;;;22.67;14.45;;;;;;;;;;5129070;27;20074;-64
2021/12/14 01:01:12;;;;;;;23.38;14.50;;;;;;;;;;5147739;27;20158;-64
2021/12/14 01:03:42;;;;;;;18.45;12.80;;;;;;;;;;5147327;27;20103;-64
2021/12/14 01:06:10;;;;;;;17.83;13.43;;;;;;;;;;5147354;27;20628;-65
2021/12/14 01:08:39;;;;;;;18.83;13.60;;;;;;;;;;5147290;27;20048;-64
2021/12/14 01:11:08;;;;;;;20.55;13.85;;;;;;;;;;5147327;27;20042;-64
2021/12/14 01:13:40;;;;;;;18.63;12.68;;;;;;;;;;5146801;27;20039;-65
2021/12/14 01:16:16;;;;;;;20.33;14.05;;;;;;;;;;5128781;27;20080;-64
2021/12/14 01:18:47;;;;;;;19.70;13.02;;;;;;;;;;5147405;27;20047;-64
2021/12/14 01:21:29;;;;;;;18.42;12.88;;;;;;;;;;5146464;27;20039;-63
2021/12/14 01:24:04;;;;;;;20.00;14.20;;;;;;;;;;5147181;27;20051;-63
2021/12/14 01:26:32;;;;;;;18.52;13.20;;;;;;;;;;5147275;27;20043;-63
2021/12/14 01:28:59;;;;;;;23.30;13.88;;;;;;;;;;5146923;27;20049;-64
2021/12/14 01:31:33;;;;;;;20.00;13.75;;;;;;;;;;5146958;27;20035;-64
2021/12/14 01:34:02;;;;;;;22.75;14.65;;;;;;;;;;5146578;27;20039;-64
2021/12/14 01:36:41;;;;;;;19.58;13.88;;;;;;;;;;5146319;27;20051;-63
2021/12/14 01:39:23;;;;;;;21.92;14.05;;;;;;;;;;5147028;27;20047;-65
2021/12/14 01:41:54;;;;;;;22.90;13.95;;;;;;;;;;5146704;27;20406;-66
2021/12/14 01:44:20;;;;;;;20.92;15.70;;;;;;;;;;5126159;28;20039;-64
2021/12/14 01:46:53;;;;;;;23.58;13.77;;;;;;;;;;5126180;28;20067;-64
2021/12/14 01:49:19;;;;;;;18.98;13.93;;;;;;;;;;5126132;28;20052;-63
2021/12/14 01:51:48;;;;;;;20.73;15.13;;;;;;;;;;5125419;28;20086;-64
2021/12/14 01:54:16;;;;;;;22.77;14.68;;;;;;;;;;5145118;27;20046;-64
2021/12/14 01:56:43;;;;;;;22.38;15.38;;;;;;;;;;5146332;27;20118;-64
2021/12/14 01:59:11;;;;;;;22.80;15.40;;;;;;;;;;5146554;27;20062;-64
2021/12/14 02:01:47;;;;;;;27.42;15.68;;;;;;;;;;5146317;27;20046;-64
2021/12/14 02:04:16;;;;;;;21.45;15.05;;;;;;;;;;5146053;27;20047;-64
2021/12/14 02:06:43;;;;;;;22.90;15.07;;;;;;;;;;5145619;27;20472;-64
2021/12/14 02:09:09;;;;;;;24.63;14.87;;;;;;;;;;5127861;27;20051;-64
2021/12/14 02:11:39;;;;;;;22.63;16.65;;;;;;;;;;5146015;27;20343;-64
2021/12/14 02:14:05;;;;;;;25.98;17.02;;;;;;;;;;5145598;27;20039;-64
2021/12/14 02:16:32;;;;;;;26.20;17.17;;;;;;;;;;5146197;27;20050;-64
2021/12/14 02:19:00;;;;;;;24.27;17.15;;;;;;;;;;5145975;27;20201;-64
2021/12/14 02:21:27;;;;;;;27.67;16.60;;;;;;;;;;5145368;27;20099;-64
2021/12/14 02:23:55;;;;;;;26.00;17.00;;;;;;;;;;5127396;27;20039;-64
2021/12/14 02:26:21;;;;;;;;;;;;;;;;;;5146028;27;20043;-63
2021/12/14 02:28:47;;;;;;;26.73;18.30;;;;;;;;;;5146159;27;19965;-64
2021/12/14 02:31:15;;;;;;;31.13;18.17;;;;;;;;;;5145562;27;20100;-64
2021/12/14 02:33:43;;;;;;;26.15;18.10;;;;;;;;;;5145432;27;20410;-64
2021/12/14 02:36:13;;;;;;;27.38;17.75;;;;;;;;;;5126833;27;20066;-64
2021/12/14 02:38:44;;;;;;;28.58;19.77;;;;;;;;;;5145673;27;20071;-63
2021/12/14 02:41:10;;;;;;;24.58;16.75;;;;;;;;;;5145935;27;20043;-65
2021/12/14 02:43:37;;;;;;;29.90;20.42;;;;;;;;;;5145404;27;20047;-64
2021/12/14 02:46:11;;;;;;;33.65;21.33;;;;;;;;;;5145482;27;20145;-64
2021/12/14 02:48:38;;;;;;;30.90;19.27;;;;;;;;;;5145730;27;20059;-64
2021/12/14 02:51:09;;;;;;;29.48;20.10;;;;;;;;;;5145041;27;20039;-65
2021/12/14 02:53:36;;;;;;;29.58;20.23;;;;;;;;;;5145405;27;20039;-63
2021/12/14 02:56:07;;;;;;;31.17;20.70;;;;;;;;;;5145515;27;20366;-64
2021/12/14 02:58:33;;;;;;;37.13;20.67;;;;;;;;;;5145299;28;20559;-64
2021/12/14 03:01:01;;;;;;;31.25;20.27;;;;;;;;;;5145276;28;20225;-64
2021/12/14 03:03:27;;;;;;;32.05;20.60;;;;;;;;;;5126942;28;20087;-64
2021/12/14 03:05:54;;;;;;;34.85;21.52;;;;;;;;;;5144731;28;20040;-64
2021/12/14 03:08:24;;;;;;;33.08;21.92;;;;;;;;;;5145282;28;20043;-64
2021/12/14 03:10:59;;;;;;;34.75;21.50;;;;;;;;;;5126826;28;20035;-63
2021/12/14 03:13:30;;;;;;;36.65;22.30;;;;;;;;;;5126354;28;20077;-63
2021/12/14 03:15:58;;;;;;;35.30;20.42;;;;;;;;;;5145700;28;20046;-64
2021/12/14 03:18:34;;;;;;;26.73;19.45;;;;;;;;;;5145450;28;20047;-63
2021/12/14 03:21:08;;;;;;;32.70;21.80;;;;;;;;;;5144487;28;20047;-64
2021/12/14 03:23:37;;;;;;;32.28;21.13;;;;;;;;;;5144817;28;20053;-63
2021/12/14 03:26:05;;;;;;;29.90;21.25;;;;;;;;;;5145381;28;20054;-64
2021/12/14 03:28:31;;;;;;;37.17;23.27;;;;;;;;;;5145128;28;20039;-63
2021/12/14 03:31:00;;;;;;;29.95;21.50;;;;;;;;;;5145457;28;20035;-64
2021/12/14 03:33:29;;;;;;;34.63;21.75;;;;;;;;;;5144922;28;20051;-64
2021/12/14 03:36:01;;;;;;;33.80;23.35;;;;;;;;;;5126007;28;20063;-64
2021/12/14 03:38:30;;;;;;;31.95;22.23;;;;;;;;;;5145077;28;20155;-64
2021/12/14 03:40:58;;;;;;;32.03;22.30;;;;;;;;;;5144972;28;20046;-64
2021/12/14 03:43:24;;;;;;;;;;;;;;;;;;5145186;28;20414;-64
2021/12/14 03:45:51;;;;;;;36.00;22.85;;;;;;;;;;5126611;28;19962;-64
2021/12/14 03:48:17;;;;;;;31.80;21.77;;;;;;;;;;5145096;28;20059;-64
2021/12/14 03:50:43;;;;;;;31.80;21.92;;;;;;;;;;5144392;28;20047;-64
2021/12/14 03:53:11;;;;;;;35.22;23.85;;;;;;;;;;5144833;28;20043;-64
2021/12/14 03:55:42;;;;;;;43.33;25.02;;;;;;;;;;5144741;28;20043;-63
2021/12/14 03:58:18;;;;;;;33.92;23.05;;;;;;;;;;5144869;28;20117;-64
2021/12/14 04:00:48;;;;;;;34.42;24.60;;;;;;;;;;5132610;28;20047;-64
2021/12/14 04:03:15;;;;;;;34.20;24.98;;;;;;;;;;5142114;28;20042;-63
2021/12/14 04:05:42;;;;;;;36.05;24.63;;;;;;;;;;5144009;28;20043;-64
2021/12/14 04:08:10;;;;;;;37.03;24.38;;;;;;;;;;5144992;27;20106;-63
2021/12/14 04:10:37;;;;;;;37.55;25.20;;;;;;;;;;5147913;27;20387;-63
2021/12/14 04:13:04;;;;;;;34.13;23.35;;;;;;;;;;5148295;27;20131;-63
2021/12/14 04:15:31;;;;;;;33.37;23.67;;;;;;;;;;5148328;27;20039;-63
2021/12/14 04:17:57;;;;;;;37.85;23.80;;;;;;;;;;5148735;27;20039;-63
2021/12/14 04:20:23;;;;;;;35.72;23.67;;;;;;;;;;5129303;27;20071;-64
2021/12/14 04:22:50;;;;;;;36.65;23.38;;;;;;;;;;5148370;27;20394;-64
2021/12/14 04:25:18;;;;;;;37.15;23.02;;;;;;;;;;5147800;27;20049;-64
2021/12/14 04:27:44;;;;;;;34.90;23.52;;;;;;;;;;5148176;27;20043;-64
2021/12/14 04:30:12;;;;;;;36.72;23.13;;;;;;;;;;5148472;27;20102;-64
2021/12/14 04:32:39;;;;;;;36.42;23.58;;;;;;;;;;5148180;27;20383;-64
2021/12/14 04:35:06;;;;;;;33.83;22.70;;;;;;;;;;5147028;27;20050;-64
2021/12/14 04:37:38;;;;;;;;;;;;;;;;;;5148563;27;20047;-64
2021/12/14 04:40:24;;;;;;;45.03;26.33;;;;;;;;;;5147778;27;19927;-63
2021/12/14 04:53:54;;;;;;;40.15;24.67;;;;;;;;;;5147846;27;20086;-64
2021/12/14 04:56:22;;;;;;;49.83;30.02;;;;;;;;;;5147139;27;20039;-63
2021/12/14 04:58:52;;;;;;;49.38;28.45;;;;;;;;;;5147466;27;20110;-63
2021/12/14 05:01:18;;;;;;;43.15;26.90;;;;;;;;;;5147509;27;20049;-64
2021/12/14 05:03:50;;;;;;;39.85;24.55;;;;;;;;;;5129207;27;20051;-64
2021/12/14 05:06:19;;;;;;;54.28;30.85;;;;;;;;;;5146540;27;20054;-65
2021/12/14 05:11:23;;;;;;;48.17;30.35;;;;;;;;;;5129416;27;20055;-64
2021/12/14 05:13:51;;;;;;;49.38;31.15;;;;;;;;;;5147145;27;20051;-64
2021/12/14 05:16:18;;;;;;;54.08;28.80;;;;;;;;;;5146544;27;20511;-64
2021/12/14 05:18:46;;;;;;;47.58;29.13;;;;;;;;;;5147255;27;20477;-64
2021/12/14 05:21:12;;;;;;;49.67;30.35;;;;;;;;;;5146203;27;20432;-64
2021/12/14 05:23:39;;;;;;;46.85;27.20;;;;;;;;;;5146331;27;20049;-65
2021/12/14 05:26:07;;;;;;;50.95;28.95;;;;;;;;;;5147052;27;20050;-64
2021/12/14 05:28:33;;;;;;;;;;;;;;;;;;5142886;27;20078;-63
2021/12/14 05:31:00;;;;;;;49.47;29.92;;;;;;;;;;5144834;27;19923;-64
2021/12/14 05:33:28;;;;;;;47.30;29.08;;;;;;;;;;5143340;27;20127;-64
2021/12/14 05:35:54;;;;;;;;;;;;;;;;;;5127617;27;20066;-63
2021/12/14 05:38:26;;;;;;;48.17;30.13;;;;;;;;;;5144730;27;19920;-65
2021/12/14 05:43:24;;;;;;;42.92;27.95;;;;;;;;;;5145488;27;20061;-64
2021/12/14 05:45:53;;;;;;;47.35;29.00;;;;;;;;;;5145075;27;20039;-64
2021/12/14 05:48:27;;;;;;;49.55;30.50;;;;;;;;;;5125947;27;20055;-64
2021/12/14 05:50:55;;;;;;;57.17;34.65;;;;;;;;;;5141675;27;20047;-64
2021/12/14 05:53:32;;;;;;;58.92;32.67;;;;;;;;;;5126251;27;20093;-64
2021/12/14 05:56:01;;;;;;;54.63;33.78;;;;;;;;;;5144296;27;20035;-64
2021/12/14 05:58:27;;;;;;;56.45;31.35;;;;;;;;;;5145935;27;20130;-64
2021/12/14 06:00:57;;;;;;;50.40;30.10;;;;;;;;;;5144781;27;20098;-64
2021/12/14 06:03:28;;;;;;;53.80;32.80;;;;;;;;;;5146417;27;20125;-64
2021/12/14 06:05:55;;;;;;;52.78;29.30;;;;;;;;;;5127190;27;20051;-64
2021/12/14 06:08:23;;;;;;;45.77;27.93;;;;;;;;;;5145894;27;20492;-63
2021/12/14 06:10:50;;;;;;;46.35;28.40;;;;;;;;;;5146008;27;20043;-64
2021/12/14 06:13:17;;;;;;;48.30;31.13;;;;;;;;;;5146288;27;20079;-64
2021/12/14 06:15:43;;;;;;;;;;;;;;;;;;5128479;27;20047;-65
2021/12/14 06:18:10;;;;;;;39.97;26.02;;;;;;;;;;5145374;27;19926;-64
2021/12/14 06:20:36;;;;;;;59.00;35.55;;;;;;;;;;5127094;27;20095;-64
2021/12/14 06:23:02;;;;;;;54.13;32.03;;;;;;;;;;5146101;27;20387;-64
2021/12/14 06:25:29;;;;;;;53.00;32.30;;;;;;;;;;5146256;27;20094;-64
2021/12/14 06:27:59;;;;;;;49.15;30.83;;;;;;;;;;5145117;27;20050;-64
2021/12/14 06:30:31;;;;;;;47.47;29.50;;;;;;;;;;5126642;27;20039;-64
2021/12/14 06:33:02;;;;;;;50.83;30.98;;;;;;;;;;5143240;27;20043;-63
2021/12/14 06:35:35;;;;;;;53.20;31.90;;;;;;;;;;5144928;27;20051;-64
2021/12/14 06:38:26;;;;;;;54.08;31.85;;;;;;;;;;5145134;27;20058;-64
2021/12/14 06:40:58;;;;;;;51.45;30.27;;;;;;;;;;5145436;27;20050;-63
2021/12/14 06:43:26;;;;;;;55.40;32.40;;;;;;;;;;5128366;27;20791;-64
2021/12/14 06:46:03;;;;;;;62.20;32.38;;;;;;;;;;5145174;27;20083;-64
2021/12/14 06:48:41;;;;;;;55.70;32.35;;;;;;;;;;5145385;27;20059;-64
2021/12/14 06:51:13;;;;;;;54.05;32.33;;;;;;;;;;5115596;27;20532;-65
2021/12/14 06:53:40;;;;;;;56.60;32.47;;;;;;;;;;5126891;28;20040;-64
2021/12/14 06:56:08;;;;;;;54.95;33.72;;;;;;;;;;5144525;28;20524;-64
2021/12/14 06:58:38;;;;;;;55.25;32.67;;;;;;;;;;5126205;28;20039;-65
2021/12/14 07:01:12;;;;;;;48.53;31.15;;;;;;;;;;5127008;28;20047;-64
2021/12/14 07:03:41;;;;;;;55.45;33.55;;;;;;;;;;5126381;28;20622;-63
2021/12/14 07:06:07;;;;;;;52.35;33.78;;;;;;;;;;5105889;28;20056;-64
2021/12/14 07:08:33;;;;;;;60.55;33.80;;;;;;;;;;5133801;28;20053;-63
2021/12/14 07:11:00;;;;;;;50.50;30.15;;;;;;;;;;5145144;28;20047;-64
2021/12/14 07:13:34;;;;;;;51.00;30.90;;;;;;;;;;5126213;28;20071;-63
2021/12/14 07:16:01;;;;;;;58.08;34.47;;;;;;;;;;5125360;28;20047;-64
2021/12/14 07:18:29;;;;;;;53.13;33.05;;;;;;;;;;5137540;28;20043;-64
2021/12/14 07:20:56;;;;;;;61.47;33.08;;;;;;;;;;5125352;28;20120;-64
2021/12/14 07:23:30;;;;;;;60.67;34.63;;;;;;;;;;5144511;28;20410;-64
2021/12/14 07:26:02;;;;;;;70.28;35.50;;;;;;;;;;5125826;28;20102;-64
2021/12/14 07:28:29;;;;;;;60.83;31.08;;;;;;;;;;5125193;28;20057;-63
2021/12/14 07:30:57;;;;;;;70.50;35.97;;;;;;;;;;5125447;28;20054;-64
2021/12/14 07:33:26;;;;;;;71.13;37.85;;;;;;;;;;5144941;28;20078;-64
2021/12/14 07:36:01;;;;;;;81.25;40.63;;;;;;;;;;5144588;28;20073;-64
2021/12/14 07:38:43;;;;;;;76.82;39.22;;;;;;;;;;5126061;28;20092;-65
2021/12/14 07:41:15;;;;;;;74.05;38.40;;;;;;;;;;5106374;28;20058;-64
2021/12/14 07:43:50;;;;;;;78.38;38.55;;;;;;;;;;5126245;28;20081;-63
2021/12/14 07:46:19;;;;;;;84.22;40.67;;;;;;;;;;5127875;27;20054;-64
2021/12/14 07:48:47;;;;;;;76.53;36.00;;;;;;;;;;5140374;27;20085;-64
2021/12/14 07:51:14;;;;;;;77.78;37.67;;;;;;;;;;5121558;27;20043;-64
2021/12/14 07:53:43;;;;;;;92.55;41.67;;;;;;;;;;5132216;27;20051;-65
2021/12/14 07:56:21;;;;;;;79.30;37.72;;;;;;;;;;5128250;27;20285;-65
2021/12/14 07:58:48;;;;;;;86.95;40.30;;;;;;;;;;5145109;27;20043;-65
2021/12/14 08:01:15;;;;;;;94.18;42.67;;;;;;;;;;5128324;27;20051;-65
2021/12/14 08:03:41;;;;;;;94.88;41.38;;;;;;;;;;5139396;27;20094;-65
2021/12/14 08:06:10;;;;;;;100.22;42.83;;;;;;;;;;5127377;28;20460;-64
2021/12/14 08:08:53;;;;;;;101.57;45.15;;;;;;;;;;5110898;27;20059;-65
2021/12/14 08:14:03;;;;;;;104.45;43.95;;;;;;;;;;5148359;27;20053;-64
2021/12/14 08:16:58;;;;;;;98.75;41.75;;;;;;;;;;5147744;27;20073;-64
2021/12/14 08:19:30;;;;;;;107.50;44.05;;;;;;;;;;5125926;27;20051;-64
2021/12/14 08:21:57;;;;;;;88.18;41.42;;;;;;;;;;5120354;27;20059;-64
2021/12/14 08:24:23;;;;;;;96.50;40.15;;;;;;;;;;5127059;28;20119;-64
2021/12/14 08:26:51;;;;;;;89.18;43.33;;;;;;;;;;5140893;27;20050;-65
2021/12/14 08:29:19;;;;;;;98.80;41.80;;;;;;;;;;5147962;27;20509;-64
2021/12/14 08:31:46;;;;;;;96.45;42.47;;;;;;;;;;5148187;27;20047;-64
2021/12/14 08:34:14;;;;;;;96.60;44.88;;;;;;;;;;5148119;27;20043;-66
2021/12/14 08:36:43;;;;;;;90.32;41.28;;;;;;;;;;5147417;27;20085;-64
2021/12/14 08:39:12;;;;;;;93.45;41.63;;;;;;;;;;5129498;27;20055;-64
2021/12/14 08:41:47;;;;;;;92.18;41.63;;;;;;;;;;5147815;27;20504;-65
2021/12/14 08:44:20;;;;;;;92.65;42.17;;;;;;;;;;5129418;27;20051;-65
2021/12/14 08:46:49;;;;;;;86.65;39.72;;;;;;;;;;5147340;27;20046;-64
2021/12/14 08:49:16;;;;;;;97.47;43.90;;;;;;;;;;5123005;27;20043;-64
2021/12/14 08:51:44;;;;;;;89.47;41.15;;;;;;;;;;5145923;27;20059;-65
2021/12/14 08:54:16;;;;;;;89.30;38.83;;;;;;;;;;5146803;27;20100;-64
2021/12/14 08:56:48;;;;;;;94.80;40.03;;;;;;;;;;5146498;27;20073;-63
2021/12/14 08:59:15;;;;;;;89.22;40.15;;;;;;;;;;5146181;27;20541;-64
2021/12/14 09:01:43;;;;;;;87.97;38.72;;;;;;;;;;5146448;27;20064;-64
2021/12/14 09:04:21;;;;;;;94.45;43.13;;;;;;;;;;5119297;28;20125;-64
2021/12/14 09:06:51;;;;;;;94.97;43.28;;;;;;;;;;5138575;27;20039;-64
2021/12/14 09:09:18;;;;;;;91.25;39.72;;;;;;;;;;5146637;27;20039;-65
2021/12/14 09:11:46;;;;;;;91.47;39.42;;;;;;;;;;5146725;27;20039;-63
2021/12/14 09:14:14;;;;;;;88.88;41.22;;;;;;;;;;5141654;27;20106;-64
2021/12/14 09:16:41;;;;;;;105.57;42.80;;;;;;;;;;5146315;27;20043;-65
2021/12/14 09:19:19;;;;;;;98.13;42.70;;;;;;;;;;5127845;27;20126;-63
2021/12/14 09:21:46;;;;;;;87.65;39.97;;;;;;;;;;5145834;27;20091;-63
2021/12/14 09:24:15;;;;;;;90.15;42.03;;;;;;;;;;5126885;27;20140;-65
2021/12/14 09:26:43;;;;;;;93.03;41.05;;;;;;;;;;5126843;27;20047;-65
2021/12/14 09:29:12;;;;;;;90.10;41.42;;;;;;;;;;5127680;27;20093;-64
2021/12/14 09:31:39;;;;;;;91.28;40.08;;;;;;;;;;5146020;27;20110;-64
2021/12/14 09:34:06;;;;;;;85.70;40.70;;;;;;;;;;5146310;27;20087;-64
2021/12/14 09:36:32;;;;;;;93.40;41.97;;;;;;;;;;5145323;27;20062;-64
2021/12/14 09:39:08;;;;;;;84.68;39.40;;;;;;;;;;5121293;28;20059;-64
2021/12/14 09:41:34;;;;;;;89.32;40.83;;;;;;;;;;5126215;28;20079;-64
2021/12/14 09:44:02;;;;;;;75.43;36.67;;;;;;;;;;5108132;28;20059;-63
2021/12/14 09:46:28;;;;;;;;;;;;;;;;;;5133614;27;20048;-63
2021/12/14 09:48:57;;;;;;;79.07;40.40;;;;;;;;;;5146360;27;19926;-65
2021/12/14 09:51:31;;;;;;;85.60;39.08;;;;;;;;;;5145822;27;20051;-65
2021/12/14 09:53:58;;;;;;;87.57;41.95;;;;;;;;;;5127890;27;20051;-64
2021/12/14 09:56:26;;;;;;;89.82;40.25;;;;;;;;;;5146209;27;20042;-64
2021/12/14 09:58:59;;;;;;;80.78;41.92;;;;;;;;;;5141153;27;20051;-64
2021/12/14 10:01:31;;;;;;;86.80;40.40;;;;;;;;;;5118983;28;20048;-64
2021/12/14 10:03:59;;;;;;;96.28;42.38;;;;;;;;;;5145207;27;20043;-64
2021/12/14 10:06:27;;;;;;;80.82;39.92;;;;;;;;;;5121473;27;20292;-65
2021/12/14 10:08:59;;;;;;;84.80;40.15;;;;;;;;;;5141278;27;20075;-64
2021/12/14 10:11:37;;;;;;;95.28;41.53;;;;;;;;;;5122584;27;20050;-64
2021/12/14 10:14:04;;;;;;;66.50;32.95;;;;;;;;;;5145996;27;20051;-64
2021/12/14 10:16:30;;;;;;;91.03;41.35;;;;;;;;;;5126952;27;20042;-64
2021/12/14 10:19:01;;;;;;;92.13;40.85;;;;;;;;;;5146383;27;20077;-64
2021/12/14 10:21:33;;;;;;;78.03;38.42;;;;;;;;;;5140437;27;20090;-64
2021/12/14 10:24:00;;;;;;;75.38;38.30;;;;;;;;;;5127415;27;20115;-64
2021/12/14 10:26:27;;;;;;;93.15;38.72;;;;;;;;;;5139098;27;20045;-63
2021/12/14 10:28:55;;;;;;;55.92;29.10;;;;;;;;;;5127079;27;20054;-64
2021/12/14 10:31:27;;;;;;;88.82;41.15;;;;;;;;;;5115527;28;20051;-64
2021/12/14 10:33:57;;;;;;;90.47;40.22;;;;;;;;;;5125439;28;20112;-64
2021/12/14 10:36:35;;;;;;;87.25;43.25;;;;;;;;;;5113085;27;20079;-64
2021/12/14 10:44:26;;;;;;;80.68;38.03;;;;;;;;;;5123998;27;20088;-64
2021/12/14 10:46:53;;;;;;;81.55;40.15;;;;;;;;;;5145223;27;20051;-64
2021/12/14 10:49:20;;;;;;;89.73;40.43;;;;;;;;;;5144989;27;20079;-64
2021/12/14 10:51:48;;;;;;;83.60;38.33;;;;;;;;;;5144438;27;20683;-64
2021/12/14 10:54:15;;;;;;;86.32;38.55;;;;;;;;;;5145578;27;20090;-64
2021/12/14 10:56:44;;;;;;;82.47;35.23;;;;;;;;;;5144935;28;20103;-64
2021/12/14 10:59:11;;;;;;;68.18;32.63;;;;;;;;;;5126310;28;20293;-64
2021/12/14 11:01:39;;;;;;;78.78;36.05;;;;;;;;;;5144528;28;20046;-64
2021/12/14 11:04:05;;;;;;;;;;;;;;;;;;5145784;28;20051;-63
2021/12/14 11:06:33;;;;;;;75.82;35.75;;;;;;;;;;5144283;28;19966;-65
2021/12/14 11:09:39;;;;;;;71.95;32.95;;;;;;;;;;5145647;28;20106;-64
2021/12/14 11:11:49;;;;;;;75.57;37.78;;;;;;;;;;5144750;27;20483;-64
2021/12/14 11:14:18;;;;;;;66.78;32.78;;;;;;;;;;5125785;28;20047;-64
2021/12/14 11:19:43;;;;;;;77.43;34.05;;;;;;;;;;5148313;27;20092;-65
2021/12/14 11:22:11;;;;;;;72.75;34.60;;;;;;;;;;5148706;27;20093;-65
2021/12/14 11:24:38;;;;;;;71.50;31.10;;;;;;;;;;5148984;27;20139;-64
2021/12/14 11:27:24;;;;;;;64.75;28.70;;;;;;;;;;5148943;27;20053;-64
2021/12/14 11:29:55;;;;;;;78.70;34.88;;;;;;;;;;5148493;27;20058;-64
2021/12/14 11:32:24;;;;;;;76.00;35.95;;;;;;;;;;5145437;27;20047;-64
2021/12/14 11:34:50;;;;;;;75.85;34.78;;;;;;;;;;5148659;27;20111;-64
2021/12/14 11:37:32;;;;;;;65.65;31.58;;;;;;;;;;5148336;27;20067;-64
2021/12/14 11:39:58;;;;;;;71.82;33.65;;;;;;;;;;5130356;27;20051;-64
2021/12/14 11:42:27;;;;;;;74.43;36.08;;;;;;;;;;5148296;27;20064;-65
2021/12/14 11:44:56;;;;;;;69.78;32.17;;;;;;;;;;5148653;27;20054;-64
2021/12/14 11:47:41;;;;;;;68.55;30.55;;;;;;;;;;5149289;27;20142;-64
2021/12/14 11:50:22;;;;;;;71.50;31.27;;;;;;;;;;5129203;27;20083;-64
2021/12/14 11:52:51;;;;;;;67.72;30.30;;;;;;;;;;5129671;27;20047;-64
2021/12/14 11:55:29;;;;;;;72.00;31.52;;;;;;;;;;5148762;27;20278;-64
2021/12/14 11:58:08;;;;;;;76.13;35.40;;;;;;;;;;5148431;27;20498;-66
2021/12/14 12:00:35;;;;;;;72.72;27.63;;;;;;;;;;5148359;27;20046;-65
2021/12/14 12:03:20;;;;;;;68.50;32.25;;;;;;;;;;5148156;27;20039;-65
2021/12/14 12:06:07;;;;;;;73.28;34.15;;;;;;;;;;5147648;27;20134;-64
2021/12/14 12:11:20;;;;;;;68.00;30.95;;;;;;;;;;5147674;27;20039;-65
2021/12/14 12:13:47;;;;;;;72.90;31.02;;;;;;;;;;5129841;27;20078;-63
2021/12/14 12:16:19;;;;;;;71.07;29.47;;;;;;;;;;5129852;27;20055;-65
2021/12/14 12:19:04;;;;;;;62.45;27.75;;;;;;;;;;5141569;27;20042;-65
2021/12/14 12:21:31;;;;;;;60.38;26.08;;;;;;;;;;5144382;27;20058;-64
2021/12/14 12:23:57;;;;;;;67.88;27.13;;;;;;;;;;5140556;27;20099;-64
2021/12/14 12:26:28;;;;;;;62.88;27.67;;;;;;;;;;5147958;27;20099;-64
2021/12/14 12:28:58;;;;;;;64.07;27.92;;;;;;;;;;5128485;27;20080;-64
2021/12/14 12:31:24;;;;;;;62.80;25.75;;;;;;;;;;5147045;27;20066;-64
2021/12/14 12:33:53;;;;;;;64.90;29.50;;;;;;;;;;5148007;27;20039;-65
2021/12/14 12:36:25;;;;;;;64.15;27.50;;;;;;;;;;5141091;27;20051;-64
2021/12/14 12:38:52;;;;;;;58.55;24.42;;;;;;;;;;5140252;27;20343;-65
2021/12/14 12:41:26;;;;;;;61.90;26.02;;;;;;;;;;5137124;27;20047;-65
2021/12/14 12:43:52;;;;;;;64.13;23.85;;;;;;;;;;5143689;27;20058;-65
2021/12/14 12:46:23;;;;;;;56.72;24.60;;;;;;;;;;5146624;27;20122;-66
2021/12/14 12:48:51;;;;;;;60.15;25.25;;;;;;;;;;5144574;27;20047;-65
2021/12/14 12:51:36;;;;;;;54.53;23.23;;;;;;;;;;5137363;27;20062;-66
2021/12/14 12:54:13;;;;;;;48.35;19.55;;;;;;;;;;5140709;27;20098;-65
2021/12/14 12:56:42;;;;;;;37.72;18.85;;;;;;;;;;5139725;27;20043;-65
2021/12/14 12:59:09;;;;;;;45.92;19.92;;;;;;;;;;5127484;27;20103;-65
2021/12/14 13:01:35;;;;;;;47.10;20.17;;;;;;;;;;5140268;27;20092;-66
2021/12/14 13:04:02;;;;;;;40.47;18.75;;;;;;;;;;5146498;27;20038;-65
2021/12/14 13:06:28;;;;;;;37.28;19.23;;;;;;;;;;5146219;27;20084;-67
2021/12/14 13:08:58;;;;;;;36.42;18.27;;;;;;;;;;5146912;27;20066;-65
2021/12/14 13:11:32;;;;;;;35.15;17.15;;;;;;;;;;5146451;27;20098;-65
2021/12/14 13:14:01;;;;;;;42.63;18.33;;;;;;;;;;5143324;27;20089;-66
2021/12/14 13:16:35;;;;;;;36.17;17.33;;;;;;;;;;5146346;27;20495;-65
2021/12/14 13:19:03;;;;;;;36.80;17.83;;;;;;;;;;5128088;27;20039;-65
2021/12/14 13:21:35;;;;;;;34.10;16.80;;;;;;;;;;5127322;27;20058;-66
2021/12/14 13:24:20;;;;;;;35.20;17.15;;;;;;;;;;5146050;27;20035;-66
2021/12/14 13:26:48;;;;;;;35.95;15.68;;;;;;;;;;5145959;27;20031;-66
2021/12/14 13:29:14;;;;;;;;;;;;;;;;;;5147056;27;20051;-65
2021/12/14 13:31:42;;;;;;;29.52;15.90;;;;;;;;;;5126933;27;20370;-65
2021/12/14 13:34:10;;;;;;;28.27;13.70;;;;;;;;;;5127222;27;20072;-65
2021/12/14 13:36:37;;;;;;;31.92;14.90;;;;;;;;;;5144869;27;20054;-66
2021/12/14 13:39:06;;;;;;;30.77;15.23;;;;;;;;;;5146161;27;20039;-66
2021/12/14 13:41:57;;;;;;;34.38;16.85;;;;;;;;;;5145248;27;20051;-66
2021/12/14 13:44:23;;;;;;;30.73;15.52;;;;;;;;;;5143988;27;20114;-65
2021/12/14 13:46:49;;;;;;;39.08;18.25;;;;;;;;;;5146439;27;20130;-65
2021/12/14 13:49:16;;;;;;;33.85;16.77;;;;;;;;;;5145668;27;20051;-65
2021/12/14 13:51:42;;;;;;;32.28;16.00;;;;;;;;;;5145190;27;20043;-66
2021/12/14 13:54:08;;;;;;;41.03;16.45;;;;;;;;;;5141250;27;20111;-66
2021/12/14 13:56:36;;;;;;;32.85;15.00;;;;;;;;;;5145416;27;20077;-66
2021/12/14 13:59:02;;;;;;;33.20;15.70;;;;;;;;;;5145322;27;20092;-65
2021/12/14 14:01:30;;;;;;;34.72;16.05;;;;;;;;;;5145785;27;20109;-64
2021/12/14 14:04:00;;;;;;;32.85;16.00;;;;;;;;;;5127029;27;20047;-64
2021/12/14 14:06:27;;;;;;;37.78;17.30;;;;;;;;;;5144207;27;20043;-64
2021/12/14 14:09:01;;;;;;;39.40;17.20;;;;;;;;;;5126502;27;20057;-65
2021/12/14 14:11:27;;;;;;;34.83;16.42;;;;;;;;;;5145249;27;20047;-64
2021/12/14 14:13:55;;;;;;;42.97;19.85;;;;;;;;;;5145217;27;20073;-64
2021/12/14 14:16:21;;;;;;;;;;;;;;;;;;5127857;27;20078;-64
2021/12/14 14:18:49;;;;;;;37.70;16.95;;;;;;;;;;5143820;27;19938;-65
2021/12/14 14:21:26;;;;;;;46.55;19.13;;;;;;;;;;5144751;27;20083;-65
2021/12/14 14:23:53;;;;;;;36.17;18.88;;;;;;;;;;5145071;27;20116;-64
2021/12/14 14:26:21;;;;;;;41.67;18.90;;;;;;;;;;5130016;27;20062;-64
2021/12/14 14:28:49;;;;;;;44.30;19.35;;;;;;;;;;5131059;27;20039;-65
2021/12/14 14:31:40;;;;;;;40.45;18.88;;;;;;;;;;5144668;27;20031;-65
2021/12/14 14:34:17;;;;;;;44.45;18.92;;;;;;;;;;5145687;27;20076;-64
2021/12/14 14:36:45;;;;;;;42.63;18.45;;;;;;;;;;5145339;27;20455;-64
2021/12/14 14:39:11;;;;;;;;;;;;;;;;;;5146266;27;20081;-64
2021/12/14 14:41:42;;;;;;;43.20;19.95;;;;;;;;;;5127001;27;19940;-65
2021/12/14 14:44:34;;;;;;;47.17;20.02;;;;;;;;;;5145511;27;20069;-64
2021/12/14 14:47:13;;;;;;;51.00;19.75;;;;;;;;;;5122664;27;20069;-65
2021/12/14 14:49:39;;;;;;;45.53;20.38;;;;;;;;;;5141426;27;20039;-65
2021/12/14 14:52:05;;;;;;;43.08;18.95;;;;;;;;;;5122955;27;20108;-65
2021/12/14 14:54:34;;;;;;;44.65;18.90;;;;;;;;;;5144834;27;20104;-65
2021/12/14 14:57:09;;;;;;;41.10;19.90;;;;;;;;;;5145885;27;20054;-64
2021/12/14 14:59:36;;;;;;;45.33;19.17;;;;;;;;;;5145279;28;20078;-65
2021/12/14 15:02:02;;;;;;;47.20;20.02;;;;;;;;;;5144521;28;20068;-65
2021/12/14 15:04:28;;;;;;;51.72;22.92;;;;;;;;;;5126735;28;20047;-65
2021/12/14 15:06:55;;;;;;;60.42;22.52;;;;;;;;;;5144785;28;20043;-66
2021/12/14 15:09:29;;;;;;;54.30;22.85;;;;;;;;;;5118171;28;20095;-65
2021/12/14 15:12:01;;;;;;;56.40;22.50;;;;;;;;;;5126136;28;20054;-64